Time;durP1;ratioP1;P1;durP2;ratioP2;P2;SDS_P1;SDS_P2;PMS_P1;PMS_P2;Temp;Humidity;BMP_temperature;BMP_pressure;BME280_temperature;BME280_humidity;BME280_pressure;Samples;Min_cycle;Max_cycle;Signal;HPM_P1;HPM_P2
2023/07/07 00:00:57;;;;;;;;;6.25;4.25;;;;;21.88;38.17;100987.03;5089007;27;72878;-75
2023/07/07 00:03:22;;;;;;;;;11.50;5.75;;;;;21.92;38.03;100995.66;5050673;28;60235;-75
2023/07/07 00:05:48;;;;;;;;;9.50;8.00;;;;;21.90;38.06;101001.13;5051745;28;54851;-76
2023/07/07 00:08:14;;;;;;;;;6.25;4.50;;;;;21.82;37.87;100986.63;5069998;28;46518;-76
2023/07/07 00:10:42;;;;;;;;;8.75;6.00;;;;;21.82;37.88;100989.28;5068294;27;45666;-76
2023/07/07 00:13:11;;;;;;;;;6.00;6.00;;;;;21.84;37.96;100998.88;5072505;27;45350;-76
2023/07/07 00:15:37;;;;;;;;;6.25;5.25;;;;;21.79;37.96;100993.00;5058336;28;45557;-77
2023/07/07 00:18:03;;;;;;;;;6.50;4.50;;;;;21.73;38.30;100994.28;5050141;28;47886;-77
2023/07/07 00:20:31;;;;;;;;;5.25;5.25;;;;;21.75;38.52;100994.19;5053910;28;45999;-76
2023/07/07 00:22:58;;;;;;;;;9.00;6.50;;;;;21.68;38.41;100987.59;5062358;28;45267;-76
2023/07/07 00:25:24;;;;;;;;;7.25;4.75;;;;;21.71;38.57;100998.88;5070952;27;45360;-76
2023/07/07 00:27:49;;;;;;;;;6.00;5.00;;;;;21.63;38.00;100989.72;5079916;28;46484;-77
2023/07/07 00:30:14;;;;;;;;;7.00;6.25;;;;;21.65;38.51;100999.28;5075122;27;45454;-77
2023/07/07 00:32:40;;;;;;;;;5.50;5.50;;;;;21.60;38.77;101001.44;5080224;27;45681;-77
2023/07/07 00:35:06;;;;;;;;;8.00;6.75;;;;;21.55;38.91;100996.44;5062415;28;58357;-77
2023/07/07 00:37:31;;;;;;;;;8.25;5.75;;;;;21.54;38.61;100997.38;5079908;27;45563;-77
2023/07/07 00:39:56;;;;;;;;;7.50;4.00;;;;;21.55;38.83;101003.59;5073972;28;57304;-76
2023/07/07 00:42:22;;;;;;;;;7.00;5.00;;;;;21.53;38.41;101000.16;5074765;28;53667;-76
2023/07/07 00:45:06;;;;;;;;;5.75;5.75;;;;;21.55;38.76;100998.25;5075152;27;69454;-77
2023/07/07 00:47:33;;;;;;;;;3.75;3.75;;;;;21.49;38.75;100988.84;5077371;27;48393;-77
2023/07/07 00:49:59;;;;;;;;;6.50;5.50;;;;;21.45;38.77;100983.84;5071859;27;45761;-77
2023/07/07 00:52:24;;;;;;;;;5.50;5.25;;;;;21.41;38.55;100973.38;5089537;27;45353;-76
2023/07/07 00:54:50;;;;;;;;;3.75;3.50;;;;;21.47;39.02;100995.25;5074778;28;69936;-76
2023/07/07 00:57:15;;;;;;;;;5.75;5.00;;;;;21.45;38.93;100995.31;5059953;27;60280;-77
2023/07/07 00:59:43;;;;;;;;;7.25;4.00;;;;;21.43;38.98;100986.59;5049318;28;54026;-75
2023/07/07 01:02:10;;;;;;;;;5.75;5.00;;;;;21.42;38.92;100990.19;5074314;28;45484;-75
2023/07/07 01:04:37;;;;;;;;;5.25;5.25;;;;;21.34;38.72;100974.75;5076813;28;45674;-75
2023/07/07 01:07:13;;;;;;;;;5.75;5.00;;;;;21.36;38.53;100972.00;5078511;27;45472;-75
2023/07/07 01:09:39;;;;;;;;;6.00;5.25;;;;;21.37;39.02;100979.88;5067748;28;45927;-75
2023/07/07 01:12:12;;;;;;;;;5.50;4.50;;;;;21.30;39.27;100969.75;5075002;27;45296;-74
2023/07/07 01:14:37;;;;;;;;;11.75;7.50;;;;;21.32;39.01;100971.38;5069740;28;45406;-75
2023/07/07 01:17:06;;;;;;;;;5.25;4.50;;;;;21.33;38.85;100973.03;5074059;28;45463;-75
2023/07/07 01:19:53;;;;;;;;;6.25;4.75;;;;;21.32;38.65;100973.16;5072210;27;45853;-75
2023/07/07 01:22:50;;;;;;;;;6.50;4.50;;;;;21.30;39.27;100970.63;5071268;28;45376;-76
2023/07/07 01:25:18;;;;;;;;;6.25;4.50;;;;;21.30;39.07;100972.41;5052630;28;46362;-76
2023/07/07 01:27:54;;;;;;;;;4.75;4.75;;;;;21.26;39.47;100973.59;5070469;27;47006;-76
2023/07/07 01:30:46;;;;;;;;;6.50;4.00;;;;;21.27;39.36;100980.63;5071488;27;45465;-76
2023/07/07 01:33:15;;;;;;;;;5.25;5.25;;;;;21.22;39.34;100971.13;5065416;28;45399;-76
2023/07/07 01:35:41;;;;;;;;;11.75;8.00;;;;;21.20;39.66;100966.88;5054444;28;46114;-76
2023/07/07 01:38:26;;;;;;;;;5.75;5.75;;;;;21.19;39.28;100973.97;5072412;28;47070;-75
2023/07/07 01:41:17;;;;;;;;;8.25;6.25;;;;;21.17;39.26;100969.72;5069089;28;45466;-76
2023/07/07 01:44:25;;;;;;;;;10.75;7.25;;;;;21.17;39.75;100973.25;5058330;28;46936;-75
2023/07/07 01:47:16;;;;;;;;;6.75;6.75;;;;;21.12;39.28;100969.19;5069249;28;45209;-76
2023/07/07 01:49:55;;;;;;;;;5.00;4.75;;;;;21.09;39.80;100969.38;5072352;27;48153;-76
2023/07/07 01:52:30;;;;;;;;;7.25;5.75;;;;;21.08;39.87;100965.03;5080085;27;45853;-77
2023/07/07 01:54:59;;;;;;;;;6.75;5.00;;;;;21.03;39.88;100968.00;5074642;28;45433;-76
2023/07/07 01:57:26;;;;;;;;;5.00;5.00;;;;;20.95;39.67;100962.38;5060684;28;45684;-76
2023/07/07 01:59:53;;;;;;;;;5.50;5.00;;;;;20.99;40.01;100963.84;5070213;28;46543;-75
2023/07/07 02:02:18;;;;;;;;;7.75;7.75;;;;;20.97;39.78;100966.63;5071335;28;61158;-74
2023/07/07 02:04:43;;;;;;;;;7.50;6.25;;;;;20.86;39.88;100955.84;5069651;28;54925;-74
2023/07/07 02:07:09;;;;;;;;;7.75;7.25;;;;;20.91;39.89;100951.06;5076137;28;62319;-74
2023/07/07 02:09:36;;;;;;;;;7.75;7.00;;;;;20.92;39.86;100962.56;5073841;28;45509;-74
2023/07/07 02:12:02;;;;;;;;;5.75;5.25;;;;;20.84;40.30;100955.06;5075524;28;45855;-74
2023/07/07 02:14:27;;;;;;;;;7.75;6.00;;;;;20.85;40.42;100954.13;5073409;28;45529;-74
2023/07/07 02:16:52;;;;;;;;;6.50;5.25;;;;;20.80;39.88;100948.25;5070823;28;60759;-74
2023/07/07 02:19:18;;;;;;;;;7.00;5.50;;;;;20.77;40.54;100948.47;5069298;27;71878;-74
2023/07/07 02:21:43;;;;;;;;;8.50;7.25;;;;;20.76;40.12;100955.59;5076228;27;45503;-75
2023/07/07 02:24:08;;;;;;;;;7.00;6.00;;;;;20.78;40.54;100960.81;5067826;28;45995;-75
2023/07/07 02:26:34;;;;;;;;;10.25;6.50;;;;;20.76;39.98;100960.06;5067059;27;54552;-75
2023/07/07 02:29:00;;;;;;;;;6.50;5.00;;;;;20.72;40.33;100950.59;5075085;27;45583;-75
2023/07/07 02:31:26;;;;;;;;;7.75;6.00;;;;;20.70;40.09;100950.69;5075919;28;45437;-75
2023/07/07 02:33:52;;;;;;;;;6.50;5.25;;;;;20.69;40.61;100948.13;5077429;28;45450;-75
2023/07/07 02:36:18;;;;;;;;;8.25;8.00;;;;;20.63;40.46;100941.41;5079161;28;45432;-75
2023/07/07 02:38:44;;;;;;;;;7.75;6.00;;;;;20.65;40.46;100947.47;5070110;28;47328;-75
2023/07/07 02:41:09;;;;;;;;;8.75;6.25;;;;;20.65;40.87;100950.16;5079723;27;45304;-75
2023/07/07 02:43:35;;;;;;;;;7.75;5.00;;;;;20.63;40.74;100949.41;5073336;27;63374;-76
2023/07/07 02:46:00;;;;;;;;;6.25;5.25;;;;;20.59;40.70;100948.72;5079312;28;45571;-75
2023/07/07 02:48:26;;;;;;;;;6.50;6.00;;;;;20.60;40.54;100946.91;5068884;27;45560;-75
2023/07/07 02:51:02;;;;;;;;;6.00;4.75;;;;;20.62;40.67;100950.34;5078819;28;45740;-75
2023/07/07 02:53:29;;;;;;;;;7.75;5.00;;;;;20.53;40.74;100941.13;5073255;27;45370;-76
2023/07/07 02:55:55;;;;;;;;;9.25;5.50;;;;;20.56;40.33;100948.91;5073488;27;45521;-75
2023/07/07 02:58:22;;;;;;;;;6.00;4.00;;;;;20.47;40.80;100937.06;5078100;27;45635;-75
2023/07/07 03:00:48;;;;;;;;;5.50;5.00;;;;;20.42;40.46;100927.69;5079118;27;45889;-75
2023/07/07 03:03:13;;;;;;;;;4.25;3.25;;;;;20.50;40.29;100946.63;5062325;28;45411;-75
2023/07/07 03:05:40;;;;;;;;;5.00;4.25;;;;;20.51;40.46;100952.81;5063315;28;45455;-75
2023/07/07 03:08:06;;;;;;;;;8.00;5.00;;;;;20.48;40.71;100954.69;5063007;28;48563;-75
2023/07/07 03:10:35;;;;;;;;;7.00;5.00;;;;;20.41;40.33;100942.75;5059125;28;45986;-75
2023/07/07 03:13:01;;;;;;;;;9.00;6.00;;;;;20.42;40.44;100940.97;5077424;28;45454;-75
2023/07/07 03:15:38;;;;;;;;;9.50;5.75;;;;;20.41;40.83;100942.75;5074043;27;45603;-75
2023/07/07 03:18:09;;;;;;;;;10.25;8.25;;;;;20.40;40.97;100948.22;5063631;28;48376;-75
2023/07/07 03:20:35;;;;;;;;;7.25;5.75;;;;;20.33;40.99;100930.94;5076466;27;46826;-75
2023/07/07 03:23:00;;;;;;;;;5.00;5.00;;;;;20.38;41.11;100942.13;5081446;27;45384;-75
2023/07/07 03:25:26;;;;;;;;;9.00;6.75;;;;;20.36;40.98;100938.72;5084474;27;45548;-75
2023/07/07 03:27:52;;;;;;;;;6.00;4.25;;;;;20.34;41.00;100935.31;5073178;28;46548;-75
2023/07/07 03:30:17;;;;;;;;;7.75;6.50;;;;;20.35;40.92;100942.34;5071550;28;45374;-75
2023/07/07 03:32:43;;;;;;;;;5.50;5.00;;;;;20.31;41.46;100933.72;5080015;28;45244;-75
2023/07/07 03:35:08;;;;;;;;;7.00;5.00;;;;;20.33;40.82;100937.13;5076972;28;45340;-75
2023/07/07 03:37:33;;;;;;;;;4.75;4.75;;;;;20.32;41.00;100937.22;5071402;28;52386;-75
2023/07/07 03:39:59;;;;;;;;;5.25;5.00;;;;;20.30;41.32;100934.66;5051035;28;53829;-75
2023/07/07 03:42:24;;;;;;;;;8.00;6.00;;;;;20.26;41.04;100928.69;5072027;28;45280;-75
2023/07/07 03:44:50;;;;;;;;;11.00;5.75;;;;;20.27;41.32;100929.53;5075402;27;45518;-75
2023/07/07 03:47:15;;;;;;;;;7.00;6.00;;;;;20.27;41.38;100940.16;5072598;27;47054;-76
2023/07/07 03:49:40;;;;;;;;;6.50;5.50;;;;;20.26;41.11;100943.78;5071517;27;71613;-76
2023/07/07 03:52:06;;;;;;;;;5.25;4.00;;;;;20.29;41.83;100949.75;5073619;28;45368;-75
2023/07/07 03:54:31;;;;;;;;;7.50;5.25;;;;;20.26;41.47;100946.44;5073217;27;45387;-76
2023/07/07 03:56:57;;;;;;;;;4.50;4.00;;;;;20.23;41.63;100936.00;5080667;27;46192;-76
2023/07/07 03:59:23;;;;;;;;;5.00;3.75;;;;;20.28;41.88;100945.38;5078008;27;45571;-77
2023/07/07 04:01:49;;;;;;;;;6.75;4.25;;;;;20.30;41.53;100953.25;5059756;28;58060;-77
2023/07/07 04:04:14;;;;;;;;;5.50;4.50;;;;;20.23;41.88;100942.16;5071609;27;45457;-77
2023/07/07 04:06:39;;;;;;;;;6.25;6.00;;;;;20.23;41.91;100938.66;5079092;28;45414;-77
2023/07/07 04:09:05;;;;;;;;;9.25;7.00;;;;;20.28;41.82;100952.50;5065280;27;45435;-77
2023/07/07 04:11:31;;;;;;;;;5.25;3.50;;;;;20.23;41.75;100944.81;5079743;27;45495;-77
2023/07/07 04:13:56;;;;;;;;;5.00;4.00;;;;;20.24;41.60;100951.84;5060322;27;45508;-77
2023/07/07 04:16:24;;;;;;;;;10.75;7.00;;;;;20.26;41.59;100957.91;5062223;27;46578;-77
2023/07/07 04:18:50;;;;;;;;;9.00;7.00;;;;;20.24;42.13;100951.00;5060415;28;45347;-76
2023/07/07 04:21:18;;;;;;;;;7.50;6.00;;;;;20.24;41.88;100951.84;5072723;27;45362;-76
2023/07/07 04:23:49;;;;;;;;;6.25;6.25;;;;;20.23;41.90;100950.13;5058817;28;45474;-75
2023/07/07 04:26:16;;;;;;;;;5.25;5.25;;;;;20.25;41.73;100953.53;5052060;28;47269;-75
2023/07/07 04:28:41;;;;;;;;;5.75;4.00;;;;;20.25;42.47;100958.84;5074168;27;45306;-75
2023/07/07 04:31:08;;;;;;;;;4.25;4.00;;;;;20.26;42.02;100952.59;5071296;28;45241;-75
2023/07/07 04:33:35;;;;;;;;;5.25;4.00;;;;;20.30;42.04;100958.56;5075289;27;45544;-75
2023/07/07 04:36:02;;;;;;;;;5.75;5.75;;;;;20.26;42.01;100949.09;5063017;28;47261;-75
2023/07/07 04:38:32;;;;;;;;;5.25;3.00;;;;;20.30;41.67;100962.06;5066975;28;45265;-75
2023/07/07 04:41:11;;;;;;;;;7.00;6.25;;;;;20.27;42.00;100959.63;5062539;28;45420;-75
2023/07/07 04:43:39;;;;;;;;;6.25;4.75;;;;;20.39;42.22;100965.94;5072664;27;45430;-75
2023/07/07 04:46:05;;;;;;;;;7.00;5.25;;;;;20.42;42.52;100967.56;5058288;28;47208;-74
2023/07/07 04:48:31;;;;;;;;;6.00;5.00;;;;;20.45;42.52;100957.59;5060070;28;45891;-75
2023/07/07 04:51:02;;;;;;;;;9.75;7.00;;;;;20.51;42.03;100964.31;5077977;28;45338;-75
2023/07/07 04:53:28;;;;;;;;;6.25;5.50;;;;;20.55;42.50;100964.97;5069719;27;46016;-75
2023/07/07 04:55:55;;;;;;;;;8.00;6.50;;;;;20.56;42.30;100961.34;5093719;27;46149;-75
2023/07/07 04:58:21;;;;;;;;;11.75;7.75;;;;;20.60;41.98;100961.03;5076768;28;45340;-75
2023/07/07 05:00:47;;;;;;;;;9.00;6.00;;;;;20.62;42.10;100956.50;5074403;27;45480;-74
2023/07/07 05:03:12;;;;;;;;;7.50;6.00;;;;;20.65;42.16;100956.31;5073194;27;45317;-75
2023/07/07 05:05:38;;;;;;;;;5.50;5.00;;;;;20.66;42.49;100960.69;5057966;28;59859;-75
2023/07/07 05:08:03;;;;;;;;;4.00;3.25;;;;;20.69;42.72;100962.28;5076964;28;56768;-75
2023/07/07 05:10:29;;;;;;;;;9.50;8.00;;;;;20.69;42.25;100958.78;5064155;28;45412;-75
2023/07/07 05:12:54;;;;;;;;;10.50;7.50;;;;;20.67;42.87;100950.88;5057317;28;45709;-75
2023/07/07 05:15:19;;;;;;;;;9.25;7.25;;;;;20.72;42.53;100971.88;5065552;28;46146;-75
2023/07/07 05:17:45;;;;;;;;;9.75;6.00;;;;;20.73;43.29;100969.09;5076637;28;65507;-75
2023/07/07 05:20:10;;;;;;;;;8.00;6.75;;;;;20.69;42.68;100964.09;5042450;28;45462;-76
2023/07/07 05:22:36;;;;;;;;;8.75;5.75;;;;;20.76;42.68;100968.88;5061937;28;45479;-75
2023/07/07 05:25:01;;;;;;;;;10.50;7.00;;;;;20.71;43.18;100955.03;5069908;27;45802;-75
2023/07/07 05:27:27;;;;;;;;;9.75;7.00;;;;;20.79;43.06;100973.16;5067234;27;45370;-75
2023/07/07 05:29:52;;;;;;;;;8.50;7.00;;;;;20.78;43.25;100974.97;5070731;27;64998;-75
2023/07/07 05:32:17;;;;;;;;;10.25;6.25;;;;;20.71;43.00;100965.69;5088202;27;45504;-75
2023/07/07 05:34:43;;;;;;;;;11.25;7.25;;;;;20.78;43.21;100969.63;5077861;27;45381;-75
2023/07/07 05:37:08;;;;;;;;;10.50;6.75;;;;;20.80;43.32;100977.53;5069135;27;45228;-75
2023/07/07 05:39:34;;;;;;;;;7.50;7.25;;;;;20.80;43.24;100969.53;5072026;28;45489;-75
2023/07/07 05:41:59;;;;;;;;;6.50;6.50;;;;;20.83;43.27;100978.16;5076992;28;51285;-75
2023/07/07 05:44:24;;;;;;;;;5.75;4.75;;;;;20.88;43.38;100979.69;5075945;28;46468;-75
2023/07/07 05:46:50;;;;;;;;;6.25;6.00;;;;;20.87;43.38;100970.84;5071410;28;45485;-75
2023/07/07 05:49:15;;;;;;;;;7.75;7.00;;;;;20.98;43.04;100981.63;5074535;27;45506;-75
2023/07/07 05:51:40;;;;;;;;;11.75;7.25;;;;;21.03;43.28;100979.53;5077916;28;56268;-75
2023/07/07 05:54:06;;;;;;;;;11.00;8.00;;;;;21.09;43.12;100986.22;5073783;28;74563;-75
2023/07/07 05:56:31;;;;;;;;;9.50;7.75;;;;;21.14;42.67;100984.13;5078269;27;45423;-76
2023/07/07 05:58:57;;;;;;;;;15.00;10.00;;;;;21.17;43.04;100985.69;5056691;28;45512;-76
2023/07/07 06:01:23;;;;;;;;;12.00;9.00;;;;;21.16;42.54;100979.53;5061042;28;61523;-76
2023/07/07 06:03:48;;;;;;;;;6.75;5.75;;;;;21.19;42.58;100979.31;5058841;28;47093;-75
2023/07/07 06:06:14;;;;;;;;;7.75;6.25;;;;;21.19;42.79;100975.81;5077764;28;47863;-76
2023/07/07 06:08:40;;;;;;;;;11.25;10.50;;;;;21.20;42.79;100974.84;5076019;27;45281;-75
2023/07/07 06:11:06;;;;;;;;;14.00;9.75;;;;;21.26;43.10;100971.75;5075215;27;45417;-74
2023/07/07 06:13:32;;;;;;;;;11.25;9.00;;;;;21.35;42.84;100972.94;5058272;28;48076;-74
2023/07/07 06:15:58;;;;;;;;;12.75;10.00;;;;;21.41;43.40;100977.88;5067833;28;45714;-76
2023/07/07 06:18:23;;;;;;;;;16.00;8.00;;;;;21.45;42.59;100978.50;5057487;28;45447;-77
2023/07/07 06:20:51;;;;;;;;;12.00;11.25;;;;;21.48;43.00;100970.31;5075165;27;45520;-73
2023/07/07 06:23:16;;;;;;;;;16.75;11.00;;;;;21.55;42.86;100983.13;5052231;28;47668;-75
2023/07/07 06:25:42;;;;;;;;;15.50;9.75;;;;;21.60;43.13;100974.78;5059252;28;46144;-75
2023/07/07 06:28:07;;;;;;;;;12.00;9.00;;;;;21.63;42.98;100977.25;5061509;28;46984;-75
2023/07/07 06:30:32;;;;;;;;;9.25;8.00;;;;;21.70;42.47;100977.69;5074635;27;66502;-74
2023/07/07 06:32:58;;;;;;;;;13.25;8.75;;;;;21.78;42.94;100980.66;5073728;27;45359;-77
2023/07/07 06:35:27;;;;;;;;;7.25;5.00;;;;;21.84;42.33;100982.03;5073302;28;45693;-73
2023/07/07 06:37:52;;;;;;;;;11.00;8.50;;;;;21.89;42.46;100980.75;5069537;27;45478;-73
2023/07/07 06:40:18;;;;;;;;;9.00;6.25;;;;;21.90;42.22;100969.16;5070687;28;50076;-74
2023/07/07 06:42:43;;;;;;;;;9.50;9.00;;;;;22.02;42.78;100979.88;5070665;28;77638;-73
2023/07/07 06:45:09;;;;;;;;;7.00;5.75;;;;;22.10;42.58;100981.03;5061961;28;54086;-72
2023/07/07 06:47:34;;;;;;;;;9.50;6.00;;;;;22.19;42.34;100988.38;5066020;28;45491;-73
2023/07/07 06:49:59;;;;;;;;;9.75;8.75;;;;;22.28;41.93;100986.88;5074116;27;72373;-72
2023/07/07 06:52:25;;;;;;;;;100.50;83.50;;;;;22.31;41.76;100986.66;5075434;27;46179;-74
2023/07/07 06:54:50;;;;;;;;;18.50;14.75;;;;;22.45;41.84;100992.78;5069550;28;50340;-73
2023/07/07 06:57:15;;;;;;;;;6.25;6.00;;;;;22.53;41.70;100998.44;5068471;27;45352;-74
2023/07/07 06:59:41;;;;;;;;;8.50;7.00;;;;;22.61;41.39;100987.19;5051513;28;45450;-74
2023/07/07 07:02:11;;;;;;;;;8.00;7.75;;;;;22.65;41.25;100973.53;5070448;28;57684;-74
2023/07/07 07:04:36;;;;;;;;;7.00;6.25;;;;;22.70;41.02;100974.03;5065525;27;45691;-74
2023/07/07 07:07:02;;;;;;;;;11.75;7.75;;;;;22.79;40.75;100974.28;5050697;28;45722;-74
2023/07/07 07:09:27;;;;;;;;;7.50;6.00;;;;;22.92;40.68;100989.28;5073946;28;45374;-75
2023/07/07 07:11:52;;;;;;;;;6.25;5.75;;;;;22.97;41.23;100980.09;5061846;28;47401;-74
2023/07/07 07:14:18;;;;;;;;;7.25;5.50;;;;;23.06;40.73;100988.28;5063427;28;45449;-74
2023/07/07 07:16:45;;;;;;;;;15.25;13.50;;;;;23.17;41.12;100986.63;5076600;27;45287;-76
2023/07/07 07:19:10;;;;;;;;;72.00;54.25;;;;;23.23;40.51;100976.31;5060506;28;45741;-72
2023/07/07 07:21:35;;;;;;;;;18.00;13.75;;;;;23.36;40.51;100978.91;5060621;28;51050;-74
2023/07/07 07:24:01;;;;;;;;;11.00;8.25;;;;;23.43;40.27;100982.78;5075154;28;50107;-71
2023/07/07 07:26:26;;;;;;;;;6.25;6.00;;;;;23.52;39.96;100988.41;5077749;27;60248;-75
2023/07/07 07:28:52;;;;;;;;;7.25;4.25;;;;;23.53;39.80;100987.41;5070005;28;45256;-74
2023/07/07 07:31:17;;;;;;;;;6.50;6.50;;;;;23.57;39.97;100991.53;5082048;27;46498;-74
2023/07/07 07:33:42;;;;;;;;;10.75;7.25;;;;;23.60;40.14;100988.63;5071179;27;60086;-74
2023/07/07 07:36:08;;;;;;;;;5.75;5.00;;;;;23.59;39.88;100981.59;5051746;28;55600;-73
2023/07/07 07:38:33;;;;;;;;;14.50;9.75;;;;;23.61;39.79;100983.19;5070120;27;45602;-75
2023/07/07 07:40:58;;;;;;;;;39.25;31.50;;;;;23.63;39.89;100988.41;5054252;28;47843;-75
2023/07/07 07:43:24;;;;;;;;;14.25;12.50;;;;;23.68;39.67;100992.41;5074613;27;69505;-75
2023/07/07 07:45:49;;;;;;;;;11.25;7.00;;;;;23.73;39.66;100992.06;5072992;28;45473;-77
2023/07/07 07:48:14;;;;;;;;;8.50;6.50;;;;;23.86;39.87;100994.66;5076607;27;45451;-74
2023/07/07 07:50:40;;;;;;;;;7.00;5.50;;;;;23.94;39.66;100988.69;5071723;27;47297;-74
2023/07/07 07:53:05;;;;;;;;;46.00;32.50;;;;;24.04;39.64;100987.81;5072641;27;45486;-75
2023/07/07 07:55:31;;;;;;;;;7.00;5.50;;;;;24.19;39.41;100996.44;5073723;28;45426;-76
2023/07/07 07:57:56;;;;;;;;;8.50;7.25;;;;;24.36;39.34;101000.41;5079070;27;45528;-75
2023/07/07 08:00:22;;;;;;;;;14.50;12.00;;;;;24.49;39.33;101005.66;5075928;28;47249;-74
2023/07/07 08:02:50;;;;;;;;;13.00;9.50;;;;;24.55;39.17;100999.81;5066847;27;45520;-74
2023/07/07 08:05:16;;;;;;;;;7.75;6.25;;;;;24.62;38.60;101001.00;5058592;28;45378;-72
2023/07/07 08:07:41;;;;;;;;;7.00;7.00;;;;;24.70;38.59;101003.06;5066214;28;45509;-80
2023/07/07 08:10:08;;;;;;;;;6.50;5.25;;;;;24.68;38.79;100998.81;5055515;28;70340;-79
2023/07/07 08:12:33;;;;;;;;;6.50;5.50;;;;;24.75;38.68;101011.53;5072369;28;45455;-79
2023/07/07 08:14:59;;;;;;;;;5.00;4.50;;;;;24.77;38.52;101006.06;5072523;27;45634;-75
2023/07/07 08:17:24;;;;;;;;;5.75;5.25;;;;;24.83;38.32;101009.09;5075366;27;49099;-76
2023/07/07 08:19:49;;;;;;;;;4.50;4.25;;;;;24.85;38.44;101010.81;5073622;27;47173;-77
2023/07/07 08:22:22;;;;;;;;;7.25;5.25;;;;;24.93;38.58;101011.00;5075111;28;62468;-89
2023/07/07 08:24:51;;;;;;;;;5.50;5.25;;;;;24.94;38.26;101002.00;5071222;27;45461;-77
2023/07/07 08:27:17;;;;;;;;;7.25;6.00;;;;;25.01;38.20;101011.22;5079511;27;45386;-76
2023/07/07 08:29:42;;;;;;;;;7.25;5.50;;;;;25.03;38.71;101019.97;5051837;28;47261;-76
2023/07/07 08:32:14;;;;;;;;;17.75;14.50;;;;;25.05;38.29;101014.47;5072887;27;47252;-77
2023/07/07 08:34:40;;;;;;;;;24.25;19.00;;;;;25.06;38.30;101005.47;5060084;28;45448;-76
2023/07/07 08:37:05;;;;;;;;;6.00;5.00;;;;;25.09;38.56;101002.53;5070126;27;45387;-78
2023/07/07 08:39:31;;;;;;;;;7.00;5.75;;;;;25.17;38.13;101002.75;5055050;28;48240;-79
2023/07/07 08:42:00;;;;;;;;;8.00;7.75;;;;;25.18;38.49;100999.09;5080650;27;45747;-79
2023/07/07 08:44:27;;;;;;;;;39.25;33.75;;;;;25.31;38.27;101001.59;5059068;28;45257;-81
2023/07/07 08:47:09;;;;;;;;;28.75;27.25;;;;;25.32;38.44;100990.75;5060673;28;45447;-81
2023/07/07 08:49:38;;;;;;;;;12.75;9.00;;;;;25.51;38.01;100998.03;5058992;28;47364;-77
2023/07/07 08:52:28;;;;;;;;;9.00;6.25;;;;;25.58;37.90;100999.22;5071630;27;45772;-81
2023/07/07 08:55:07;;;;;;;;;6.50;5.00;;;;;25.70;38.01;100999.16;5079088;27;45483;-82
2023/07/07 08:57:37;;;;;;;;;7.75;6.00;;;;;25.78;37.62;100999.31;5076390;28;45529;-79
2023/07/07 09:00:17;;;;;;;;;6.00;5.25;;;;;25.84;37.58;100995.28;5075814;28;46303;-82
2023/07/07 09:03:00;;;;;;;;;9.25;8.25;;;;;25.94;37.39;101006.91;5061447;28;45883;-80
2023/07/07 09:05:25;;;;;;;;;15.25;12.00;;;;;25.99;37.42;101007.34;5076109;27;45306;-87
2023/07/07 09:08:03;;;;;;;;;12.33;10.33;;;;;26.06;37.91;101013.03;5080385;28;45725;-87
2023/07/07 09:11:00;;;;;;;;;9.75;8.50;;;;;26.11;37.44;101011.63;5071339;28;47577;-75
2023/07/07 09:13:33;;;;;;;;;9.25;6.00;;;;;26.22;37.44;101005.31;5061321;27;47964;-79
2023/07/07 09:16:35;;;;;;;;;9.00;8.50;;;;;26.37;36.74;101002.25;5077920;28;45410;-80
2023/07/07 09:19:27;;;;;;;;;10.75;9.00;;;;;26.53;36.93;101005.25;5046739;28;45780;-77
2023/07/07 09:22:01;;;;;;;;;11.50;8.25;;;;;26.74;36.59;101006.97;5073257;28;47201;-78
2023/07/07 09:24:37;;;;;;;;;8.00;7.00;;;;;26.91;36.15;100992.84;5074803;28;46081;-77
2023/07/07 09:27:26;;;;;;;;;15.75;14.25;;;;;27.11;35.98;100999.09;5077935;28;45327;-75
2023/07/07 09:29:59;;;;;;;;;21.50;17.75;;;;;27.19;36.50;100991.13;5059640;28;46500;-78
2023/07/07 09:32:24;;;;;;;;;10.75;9.25;;;;;27.32;36.05;100990.03;5076771;27;45418;-78
2023/07/07 09:34:50;;;;;;;;;4.75;4.75;;;;;27.32;35.51;100990.91;5049913;28;62519;-79
2023/07/07 09:37:34;;;;;;;;;8.00;6.75;;;;;27.29;35.62;100988.50;5057586;27;46157;-78
2023/07/07 09:40:18;;;;;;;;;12.50;7.25;;;;;27.26;36.05;100991.41;5075395;27;45490;-78
2023/07/07 09:42:58;;;;;;;;;4.00;4.00;;;;;27.24;35.72;100985.34;5076485;27;46991;-78
2023/07/07 09:45:47;;;;;;;;;21.00;13.75;;;;;27.14;35.77;100987.19;5060788;28;45803;-78
2023/07/07 09:48:33;;;;;;;;;9.00;7.75;;;;;27.08;36.30;100985.94;5055440;28;45403;-78
2023/07/07 09:51:33;;;;;;;;;10.50;8.00;;;;;27.04;35.81;100982.69;5074091;28;45439;-77
2023/07/07 09:53:59;;;;;;;;;9.25;6.25;;;;;26.94;36.22;100970.25;5066761;27;46252;-77
2023/07/07 09:56:28;;;;;;;;;10.50;7.75;;;;;27.03;36.19;100986.34;5068435;28;74096;-77
2023/07/07 09:59:09;;;;;;;;;4.00;4.00;;;;;27.09;36.37;100984.94;5073915;28;45419;-77
2023/07/07 10:01:38;;;;;;;;;11.25;7.00;;;;;27.15;36.07;100980.84;5067581;28;45506;-78
2023/07/07 10:04:12;;;;;;;;;11.25;9.00;;;;;27.25;35.67;100981.66;5057785;28;47765;-77
2023/07/07 10:06:53;;;;;;;;;9.00;8.00;;;;;27.35;36.30;100977.16;5076722;27;45881;-82
2023/07/07 10:09:18;;;;;;;;;8.00;8.00;;;;;27.33;35.93;100967.53;5071758;28;45370;-79
2023/07/07 10:11:47;;;;;;;;;9.25;9.00;;;;;27.43;35.56;100968.38;5071748;27;45472;-80
2023/07/07 10:14:15;;;;;;;;;12.00;10.75;;;;;27.55;36.07;100971.72;5071300;28;46710;-82
2023/07/07 10:17:08;;;;;;;;;10.00;9.00;;;;;27.70;35.80;100977.47;5064433;28;45538;-85
2023/07/07 10:19:42;;;;;;;;;9.75;7.75;;;;;27.73;35.27;100966.41;5074527;28;45457;-78
2023/07/07 10:22:12;;;;;;;;;10.25;8.00;;;;;27.76;35.84;100971.50;5068568;28;45312;-78
2023/07/07 10:24:38;;;;;;;;;10.00;6.50;;;;;27.79;35.51;100968.53;5054069;28;47605;-78
2023/07/07 10:27:03;;;;;;;;;13.25;11.00;;;;;27.83;35.73;100961.84;5073070;28;58028;-76
2023/07/07 10:29:39;;;;;;;;;11.75;7.75;;;;;27.91;34.89;100955.78;5075736;28;45575;-81
2023/07/07 10:32:05;;;;;;;;;7.50;7.00;;;;;27.98;34.79;100970.31;5076987;27;45472;-80
2023/07/07 10:34:36;;;;;;;;;12.50;11.00;;;;;28.03;35.54;100962.66;5056642;28;47236;-73
2023/07/07 10:37:01;;;;;;;;;16.50;16.25;;;;;28.09;34.92;100962.03;5073023;28;45428;-72
2023/07/07 10:39:29;;;;;;;;;13.50;11.25;;;;;28.14;35.34;100962.44;5067119;28;45408;-75
2023/07/07 10:41:55;;;;;;;;;10.75;10.75;;;;;28.22;34.08;100964.34;5072317;27;45517;-75
2023/07/07 10:44:25;;;;;;;;;8.50;7.75;;;;;28.30;34.86;100966.31;5056586;28;46937;-75
2023/07/07 10:46:50;;;;;;;;;9.50;7.25;;;;;28.37;34.43;100959.31;5075299;27;45432;-70
2023/07/07 10:49:18;;;;;;;;;10.50;9.00;;;;;28.46;34.73;100963.78;5073623;28;50627;-75
2023/07/07 10:52:05;;;;;;;;;14.50;12.50;;;;;28.57;34.05;100960.03;5076895;28;45422;-74
2023/07/07 10:54:52;;;;;;;;;17.50;14.00;;;;;28.66;34.57;100952.91;5075668;28;46302;-76
2023/07/07 10:57:42;;;;;;;;;14.00;12.00;;;;;28.77;34.35;100961.59;5074711;27;46302;-75
2023/07/07 11:00:18;;;;;;;;;14.25;13.75;;;;;28.85;33.86;100951.88;5070654;27;45603;-76
2023/07/07 11:02:58;;;;;;;;;15.25;12.00;;;;;28.88;35.93;100949.72;5079021;28;45362;-79
2023/07/07 11:05:43;;;;;;;;;11.25;10.75;;;;;28.82;34.40;100947.63;5074695;27;47064;-82
2023/07/07 11:08:26;;;;;;;;;10.75;8.00;;;;;28.85;34.33;100936.56;5077534;28;45610;-76
2023/07/07 11:11:01;;;;;;;;;8.00;7.25;;;;;28.95;33.39;100944.53;5080646;27;45468;-73
2023/07/07 11:13:49;;;;;;;;;8.75;7.50;;;;;28.95;33.08;100942.72;5082485;27;45437;-73
2023/07/07 11:16:20;;;;;;;;;9.50;7.50;;;;;28.94;33.35;100929.38;5076415;27;45689;-74
2023/07/07 11:18:58;;;;;;;;;10.50;7.25;;;;;28.97;33.59;100935.31;5078277;27;45826;-81
2023/07/07 11:21:41;;;;;;;;;8.75;7.25;;;;;28.98;33.08;100925.38;5074940;28;45570;-83
2023/07/07 11:24:13;;;;;;;;;7.50;6.25;;;;;28.96;33.52;100922.00;5072147;27;45468;-82
2023/07/07 11:26:51;;;;;;;;;7.25;7.00;;;;;29.01;33.03;100927.75;5066992;27;46309;-83
2023/07/07 11:29:31;;;;;;;;;12.50;9.50;;;;;29.03;33.56;100914.97;5071868;27;45428;-76
2023/07/07 11:32:21;;;;;;;;;14.25;12.00;;;;;29.06;33.21;100911.13;5070418;27;45334;-76